Flight Track Log - Related Links

Times and Time Zones

All times are in EDT time to prevent confusion due to time zone crossing. See the FLG3735 flight status page for this flight to view local times or setup timezone preferences in your user account.

Time Position Orientation Groundspeed Altitude Reporting Facility
EDT Latitude Longitude Course Direction KTS MPH feet Rate Location/Type
Fri 10:22:46 PM 42.2036 -83.3556 56° Northeast 153 176 1,300  Level Cleveland Center
Fri 10:23:55 PM 42.1517 -83.3561 180° South 164 189 3,100 1,873 Climbing Cleveland Center
Fri 10:25:55 PM 42.0167 -83.3278 171° South 253 291 7,200 2,055 Climbing Cleveland Center
Fri 10:26:00 PM 42.3149 -82.7589 75° East  Level FlightAware Approximate
Fri 10:26:56 PM 42.0253 -83.2358 83° East 192 221 9,300  Level Cleveland Center
Fri 10:27:00 PM 42.3309 -82.6075 82° East  Level FlightAware Approximate
Fri 10:27:55 PM 42.0669 -83.1425 59° Northeast 190 219 11,000  Level Cleveland Center
Fri 10:28:00 PM 42.3604 -82.4626 56° Northeast  Level FlightAware Approximate
Fri 10:28:55 PM 42.1131 -83.0381 59° Northeast 257 296 12,300  Level Cleveland Center
Fri 10:29:55 PM 42.1611 -82.9278 60° Northeast 302 348 13,800 1,450 Climbing Cleveland Center
Fri 10:30:55 PM 42.2114 -82.8119 60° Northeast 336 387 15,200 1,550 Climbing Cleveland Center
Fri 10:31:55 PM 42.2614 -82.6958 60° Northeast 353 406 16,900 1,450 Climbing Cleveland Center
Fri 10:32:55 PM 42.3136 -82.5767 59° Northeast 358 412 18,100 1,190 Climbing Cleveland Center
Fri 10:33:56 PM 42.3347 -82.4425 78° East 358 412 19,300 1,100 Climbing Cleveland Center
Fri 10:34:55 PM 42.3475 -82.2969 83° East 370 426 20,300 1,059 Climbing Cleveland Center
Fri 10:35:55 PM 42.3600 -82.1342 84° East 392 451 21,400 1,050 Climbing Cleveland Center
Fri 10:36:55 PM 42.3725 -81.9828 84° East 399 459 22,400 950 Climbing Cleveland Center
Fri 10:37:55 PM 42.3844 -81.8481 83° East 409 471 23,300 950 Climbing Cleveland Center
Fri 10:38:55 PM 42.3986 -81.6881 83° East 409 471 24,300 900 Climbing Cleveland Center
Fri 10:39:55 PM 42.4103 -81.5364 84° East 409 471 25,100 700 Climbing Cleveland Center
Fri 10:40:55 PM 42.4242 -81.3792 83° East 409 471 25,700 600 Climbing Cleveland Center
Fri 10:41:55 PM 42.4333 -81.2189 86° East 420 483 26,300 600 Climbing Cleveland Center
Fri 10:42:55 PM 42.4467 -81.0531 84° East 425 489 26,900 600 Climbing Cleveland Center
Fri 10:43:55 PM 42.4597 -80.8731 84° East 430 495 27,500 550 Climbing Cleveland Center
Fri 10:44:55 PM 42.4706 -80.7042 85° East 443 510 28,000 500 Climbing Cleveland Center
Fri 10:45:55 PM 42.4831 -80.5381 84° East 451 519 28,500 500 Climbing Cleveland Center
Fri 10:46:55 PM 42.4956 -80.3636 84° East 451 519 29,000 250 Climbing Cleveland Center
Fri 10:47:55 PM 42.5075 -80.1889 85° East 462 532 29,000  Level Cleveland Center
Fri 10:48:55 PM 42.5172 -80.0114 86° East 467 537 29,000  Level Cleveland Center
Fri 10:49:55 PM 42.5350 -79.8308 82° East 472 543 29,000  Level Cleveland Center
Fri 10:50:55 PM 42.5439 -79.6475 86° East 482 555 29,000  Level Cleveland Center
Fri 10:51:55 PM 42.5547 -79.4614 85° East 482 555 29,000  Level Cleveland Center
Fri 10:52:55 PM 42.5653 -79.2781 85° East 487 560 29,000  Level Cleveland Center
Fri 10:53:55 PM 42.5756 -79.0889 86° East 492 566 29,000  Level Cleveland Center
Fri 10:54:55 PM 42.5856 -78.9025 86° East 492 566 29,000  Level Cleveland Center
Fri 10:55:55 PM 42.5953 -78.7161 86° East 497 572 29,000  Level Cleveland Center
Fri 10:56:55 PM 42.6044 -78.5294 86° East 497 572 29,000  Level Cleveland Center
Fri 10:57:55 PM 42.6136 -78.3431 86° East 497 572 29,000  Level Cleveland Center
Fri 10:58:55 PM 42.6222 -78.1536 86° East 497 572 29,000  Level Cleveland Center
Fri 10:59:55 PM 42.6328 -77.9642 86° East 497 572 29,000  Level Cleveland Center
Fri 11:00:55 PM 42.6408 -77.7747 87° East 497 572 29,000  Level Cleveland Center
Fri 11:01:55 PM 42.6483 -77.5825 87° East 502 578 29,000  Level Cleveland Center
Fri 11:03:52 PM 42.6628 -77.2128 87° East 514 592 29,000  Level Boston Center
Fri 11:04:52 PM 42.6708 -77.0211 87° East 514 592 29,000  Level Boston Center
Fri 11:05:51 PM 42.6783 -76.8267 87° East 514 592 29,000  Level Boston Center
Fri 11:06:51 PM 42.6856 -76.6350 87° East 514 592 29,000  Level Boston Center
Fri 11:07:53 PM 42.6906 -76.4433 88° East 514 592 29,000  Level Boston Center
Fri 11:08:54 PM 42.6972 -76.2486 87° East 514 592 29,000  Level Boston Center
Fri 11:09:52 PM 42.7028 -76.0794 87° East 514 592 29,000  Level Boston Center
Fri 11:10:53 PM 42.7067 -75.8847 88° East 514 592 29,000 -1,082 Level Boston Center
Fri 11:11:54 PM 42.7125 -75.6900 88° East 514 592 26,800 -2,441 Descending Boston Center
Fri 11:12:51 PM 42.7175 -75.5122 88° East 502 578 24,200 -2,492 Descending Boston Center
Fri 11:13:52 PM 42.7197 -75.3453 89° East 468 539 21,900 -2,479 Descending Boston Center
Fri 11:14:52 PM 42.7242 -75.1619 88° East 442 509 19,200 -2,319 Descending Boston Center
Fri 11:15:51 PM 42.7278 -75.0036 88° East 431 496 17,300 -1,964 Descending Boston Center
Fri 11:16:42 PM 42.7286 -74.8767 89° East 413 475 15,600 -1,983 Descending Boston Center
Fri 11:17:52 PM 42.7322 -74.6986 88° East 398 458 13,300 -1,836 Descending Boston Center
Fri 11:18:56 PM 42.7372 -74.5544 87° East 369 425 11,500 -1,392 Descending Boston Center
Fri 11:19:57 PM 42.7353 -74.4217 91° East 338 389 10,400 -1,268 Descending Boston Center
Fri 11:20:59 PM 42.7122 -74.3108 106° East 292 336 8,900 -1,512 Descending Boston Center
Fri 11:22:00 PM 42.6911 -74.2028 105° East 272 313 7,300 -1,537 Descending Boston Center
Fri 11:23:00 PM 42.6717 -74.0978 104° East 279 321 5,800 -1,488 Descending Boston Center
Fri 11:24:01 PM 42.6503 -73.9983 106° East 284 327 4,300 -1,513 Descending Boston Center
Fri 11:24:59 PM 42.6494 -73.9022 91° East 250 288 2,800 -1,160 Descending Boston Center
Fri 11:26:00 PM 42.6567 -73.8206 83° East 202 232 2,000 -787 Descending Boston Center
Fri 11:27:01 PM 42.6964 -73.8044 17° North 133 153 1,200 -787 Descending Boston Center

Login

Don't have an account? Register now (free) for customized features, flight alerts, and more!